sensor_id;sensor_type;location;lat;lon;timestamp;temperature;humidity
12588;DHT22;6359;51.450;7.346;2022-12-01T00:03:13;5.40;99.90
12588;DHT22;6359;51.450;7.346;2022-12-01T00:08:07;5.50;99.90
12588;DHT22;6359;51.450;7.346;2022-12-01T00:10:36;5.70;99.90
12588;DHT22;6359;51.450;7.346;2022-12-01T00:13:04;5.60;99.90
12588;DHT22;6359;51.450;7.346;2022-12-01T00:15:33;5.70;99.90
12588;DHT22;6359;51.450;7.346;2022-12-01T00:20:28;5.60;99.90
12588;DHT22;6359;51.450;7.346;2022-12-01T00:22:55;5.60;99.90
12588;DHT22;6359;51.450;7.346;2022-12-01T00:25:22;5.90;99.90
12588;DHT22;6359;51.450;7.346;2022-12-01T00:27:52;5.60;99.90
12588;DHT22;6359;51.450;7.346;2022-12-01T00:30:20;5.60;99.90
12588;DHT22;6359;51.450;7.346;2022-12-01T00:32:48;5.70;99.90
12588;DHT22;6359;51.450;7.346;2022-12-01T00:35:15;5.60;99.90
12588;DHT22;6359;51.450;7.346;2022-12-01T00:40:10;5.80;99.90
12588;DHT22;6359;51.450;7.346;2022-12-01T00:45:07;5.60;99.90
12588;DHT22;6359;51.450;7.346;2022-12-01T00:50:02;5.80;99.90
12588;DHT22;6359;51.450;7.346;2022-12-01T01:02:19;5.60;99.90
12588;DHT22;6359;51.450;7.346;2022-12-01T01:17:01;5.80;99.90
12588;DHT22;6359;51.450;7.346;2022-12-01T01:19:29;5.80;99.90
12588;DHT22;6359;51.450;7.346;2022-12-01T01:24:23;5.60;99.90
12588;DHT22;6359;51.450;7.346;2022-12-01T01:34:14;5.60;99.90
12588;DHT22;6359;51.450;7.346;2022-12-01T01:36:42;5.70;99.90
12588;DHT22;6359;51.450;7.346;2022-12-01T01:47:03;5.50;99.90
12588;DHT22;6359;51.450;7.346;2022-12-01T01:51:59;5.60;99.90
12588;DHT22;6359;51.450;7.346;2022-12-01T01:54:32;5.70;99.90
12588;DHT22;6359;51.450;7.346;2022-12-01T01:57:01;5.60;99.90
12588;DHT22;6359;51.450;7.346;2022-12-01T01:59:30;4.60;99.90
12588;DHT22;6359;51.450;7.346;2022-12-01T02:02:01;5.60;99.90
12588;DHT22;6359;51.450;7.346;2022-12-01T02:04:31;5.70;99.90
12588;DHT22;6359;51.450;7.346;2022-12-01T02:07:02;5.60;99.90
12588;DHT22;6359;51.450;7.346;2022-12-01T02:12:06;5.70;99.90
12588;DHT22;6359;51.450;7.346;2022-12-01T02:15:01;5.70;99.90
12588;DHT22;6359;51.450;7.346;2022-12-01T02:17:36;5.60;99.90
12588;DHT22;6359;51.450;7.346;2022-12-01T02:23:40;5.70;99.90
12588;DHT22;6359;51.450;7.346;2022-12-01T02:26:29;5.60;99.90
12588;DHT22;6359;51.450;7.346;2022-12-01T02:29:19;5.30;99.90
12588;DHT22;6359;51.450;7.346;2022-12-01T02:31:59;5.50;99.90
12588;DHT22;6359;51.450;7.346;2022-12-01T02:34:33;5.70;99.90
12588;DHT22;6359;51.450;7.346;2022-12-01T02:37:07;5.70;99.90
12588;DHT22;6359;51.450;7.346;2022-12-01T02:39:39;5.70;99.90
12588;DHT22;6359;51.450;7.346;2022-12-01T02:42:11;5.90;99.90
12588;DHT22;6359;51.450;7.346;2022-12-01T02:45:01;5.60;99.90
12588;DHT22;6359;51.450;7.346;2022-12-01T02:47:32;5.60;99.90
12588;DHT22;6359;51.450;7.346;2022-12-01T02:50:01;5.60;99.90
12588;DHT22;6359;51.450;7.346;2022-12-01T02:52:29;5.60;99.90
12588;DHT22;6359;51.450;7.346;2022-12-01T02:59:53;5.70;99.90
12588;DHT22;6359;51.450;7.346;2022-12-01T03:02:29;5.70;99.90
12588;DHT22;6359;51.450;7.346;2022-12-01T03:05:04;5.60;99.90
12588;DHT22;6359;51.450;7.346;2022-12-01T03:07:44;5.60;99.90
12588;DHT22;6359;51.450;7.346;2022-12-01T03:10:18;5.90;99.90
12588;DHT22;6359;51.450;7.346;2022-12-01T03:12:58;5.70;99.90
12588;DHT22;6359;51.450;7.346;2022-12-01T03:15:32;5.70;99.90
12588;DHT22;6359;51.450;7.346;2022-12-01T03:18:08;5.30;99.90
12588;DHT22;6359;51.450;7.346;2022-12-01T03:20:41;5.70;99.90
12588;DHT22;6359;51.450;7.346;2022-12-01T03:23:14;5.70;99.90
12588;DHT22;6359;51.450;7.346;2022-12-01T03:25:46;5.60;99.90
12588;DHT22;6359;51.450;7.346;2022-12-01T03:28:17;5.50;99.90
12588;DHT22;6359;51.450;7.346;2022-12-01T03:30:48;6.00;99.90
12588;DHT22;6359;51.450;7.346;2022-12-01T03:33:22;5.60;99.90
12588;DHT22;6359;51.450;7.346;2022-12-01T03:35:54;5.70;99.90
12588;DHT22;6359;51.450;7.346;2022-12-01T03:38:24;5.60;99.90
12588;DHT22;6359;51.450;7.346;2022-12-01T03:40:55;5.50;99.90
12588;DHT22;6359;51.450;7.346;2022-12-01T03:43:26;4.80;99.90
12588;DHT22;6359;51.450;7.346;2022-12-01T03:46:00;5.60;99.90
12588;DHT22;6359;51.450;7.346;2022-12-01T03:48:29;5.50;99.90
12588;DHT22;6359;51.450;7.346;2022-12-01T03:51:03;5.60;99.90
12588;DHT22;6359;51.450;7.346;2022-12-01T03:53:36;5.60;99.90
12588;DHT22;6359;51.450;7.346;2022-12-01T03:56:05;6.70;99.90
12588;DHT22;6359;51.450;7.346;2022-12-01T03:58:37;5.60;99.90
12588;DHT22;6359;51.450;7.346;2022-12-01T04:01:06;5.30;99.90
12588;DHT22;6359;51.450;7.346;2022-12-01T04:03:34;5.50;99.90
12588;DHT22;6359;51.450;7.346;2022-12-01T04:06:16;5.30;99.90
12588;DHT22;6359;51.450;7.346;2022-12-01T04:08:44;5.90;99.90
12588;DHT22;6359;51.450;7.346;2022-12-01T04:11:15;5.60;99.90
12588;DHT22;6359;51.450;7.346;2022-12-01T04:13:59;5.80;99.90
12588;DHT22;6359;51.450;7.346;2022-12-01T04:16:26;5.30;99.90
12588;DHT22;6359;51.450;7.346;2022-12-01T04:21:22;5.50;99.90
12588;DHT22;6359;51.450;7.346;2022-12-01T04:26:28;5.50;99.90
12588;DHT22;6359;51.450;7.346;2022-12-01T04:28:57;5.50;99.90
12588;DHT22;6359;51.450;7.346;2022-12-01T04:38:46;5.80;99.90
12588;DHT22;6359;51.450;7.346;2022-12-01T04:41:13;5.40;99.90
12588;DHT22;6359;51.450;7.346;2022-12-01T04:43:41;5.60;99.90
12588;DHT22;6359;51.450;7.346;2022-12-01T04:46:08;5.30;99.90
12588;DHT22;6359;51.450;7.346;2022-12-01T04:48:36;5.50;99.90
12588;DHT22;6359;51.450;7.346;2022-12-01T04:51:04;5.50;99.90
12588;DHT22;6359;51.450;7.346;2022-12-01T04:56:00;5.60;99.90
12588;DHT22;6359;51.450;7.346;2022-12-01T04:58:28;5.50;99.90
12588;DHT22;6359;51.450;7.346;2022-12-01T05:01:00;5.50;99.90
12588;DHT22;6359;51.450;7.346;2022-12-01T05:03:27;5.20;99.90
12588;DHT22;6359;51.450;7.346;2022-12-01T05:06:00;5.20;99.90
12588;DHT22;6359;51.450;7.346;2022-12-01T05:10:54;5.50;99.90
12588;DHT22;6359;51.450;7.346;2022-12-01T05:13:23;5.40;99.90
12588;DHT22;6359;51.450;7.346;2022-12-01T05:18:17;5.30;99.90
12588;DHT22;6359;51.450;7.346;2022-12-01T05:20:44;5.70;99.90
12588;DHT22;6359;51.450;7.346;2022-12-01T05:28:16;5.20;99.90
12588;DHT22;6359;51.450;7.346;2022-12-01T05:30:45;5.50;99.90
12588;DHT22;6359;51.450;7.346;2022-12-01T05:35:39;5.80;99.90
12588;DHT22;6359;51.450;7.346;2022-12-01T05:45:28;5.70;99.90
12588;DHT22;6359;51.450;7.346;2022-12-01T05:47:57;7.20;99.90
12588;DHT22;6359;51.450;7.346;2022-12-01T05:50:25;5.70;99.90
12588;DHT22;6359;51.450;7.346;2022-12-01T05:55:20;5.70;99.90
12588;DHT22;6359;51.450;7.346;2022-12-01T06:00:15;5.60;99.90
12588;DHT22;6359;51.450;7.346;2022-12-01T06:05:10;5.50;99.90
12588;DHT22;6359;51.450;7.346;2022-12-01T06:07:37;5.60;99.90
12588;DHT22;6359;51.450;7.346;2022-12-01T06:10:06;5.60;99.90
12588;DHT22;6359;51.450;7.346;2022-12-01T06:12:34;5.50;99.90
12588;DHT22;6359;51.450;7.346;2022-12-01T06:22:24;5.50;99.90
12588;DHT22;6359;51.450;7.346;2022-12-01T06:39:36;5.60;99.90
12588;DHT22;6359;51.450;7.346;2022-12-01T06:56:48;5.10;99.90
12588;DHT22;6359;51.450;7.346;2022-12-01T06:59:15;5.30;99.90
12588;DHT22;6359;51.450;7.346;2022-12-01T07:01:41;5.00;99.90
12588;DHT22;6359;51.450;7.346;2022-12-01T07:09:03;5.30;99.90
12588;DHT22;6359;51.450;7.346;2022-12-01T07:11:29;5.30;99.90
12588;DHT22;6359;51.450;7.346;2022-12-01T07:13:58;5.10;99.90
12588;DHT22;6359;51.450;7.346;2022-12-01T07:26:15;5.10;99.90
12588;DHT22;6359;51.450;7.346;2022-12-01T07:28:42;5.20;99.90
12588;DHT22;6359;51.450;7.346;2022-12-01T07:31:13;5.20;99.90
12588;DHT22;6359;51.450;7.346;2022-12-01T07:33:40;5.10;99.90
12588;DHT22;6359;51.450;7.346;2022-12-01T07:36:08;5.30;99.90
12588;DHT22;6359;51.450;7.346;2022-12-01T07:41:04;5.30;99.90
12588;DHT22;6359;51.450;7.346;2022-12-01T07:43:32;5.20;99.90
12588;DHT22;6359;51.450;7.346;2022-12-01T07:46:03;5.20;99.90
12588;DHT22;6359;51.450;7.346;2022-12-01T07:48:32;6.50;99.90
12588;DHT22;6359;51.450;7.346;2022-12-01T07:50:59;5.50;99.90
12588;DHT22;6359;51.450;7.346;2022-12-01T07:53:26;5.60;99.90
12588;DHT22;6359;51.450;7.346;2022-12-01T07:55:53;5.30;99.90
12588;DHT22;6359;51.450;7.346;2022-12-01T07:58:20;5.30;99.90
12588;DHT22;6359;51.450;7.346;2022-12-01T08:03:14;5.20;99.90
12588;DHT22;6359;51.450;7.346;2022-12-01T08:05:42;5.20;99.90
12588;DHT22;6359;51.450;7.346;2022-12-01T08:18:00;5.30;99.90
12588;DHT22;6359;51.450;7.346;2022-12-01T08:22:59;5.30;99.90
12588;DHT22;6359;51.450;7.346;2022-12-01T08:25:26;5.10;99.90
12588;DHT22;6359;51.450;7.346;2022-12-01T08:30:20;5.20;99.90
12588;DHT22;6359;51.450;7.346;2022-12-01T08:32:47;5.40;99.90
12588;DHT22;6359;51.450;7.346;2022-12-01T08:40:11;5.30;99.90
12588;DHT22;6359;51.450;7.346;2022-12-01T08:45:06;5.30;99.90
12588;DHT22;6359;51.450;7.346;2022-12-01T08:47:32;5.20;99.90
12588;DHT22;6359;51.450;7.346;2022-12-01T08:49:59;5.20;99.90
12588;DHT22;6359;51.450;7.346;2022-12-01T08:52:30;5.20;99.90
12588;DHT22;6359;51.450;7.346;2022-12-01T08:54:57;5.60;99.90
12588;DHT22;6359;51.450;7.346;2022-12-01T08:57:27;5.30;99.90
12588;DHT22;6359;51.450;7.346;2022-12-01T09:04:49;5.30;99.90
12588;DHT22;6359;51.450;7.346;2022-12-01T09:07:17;5.30;99.90
12588;DHT22;6359;51.450;7.346;2022-12-01T09:09:45;5.30;99.90
12588;DHT22;6359;51.450;7.346;2022-12-01T09:14:42;5.80;99.90
12588;DHT22;6359;51.450;7.346;2022-12-01T09:17:13;5.40;99.90
12588;DHT22;6359;51.450;7.346;2022-12-01T09:27:02;5.30;99.90
12588;DHT22;6359;51.450;7.346;2022-12-01T09:29:30;5.60;99.90
12588;DHT22;6359;51.450;7.346;2022-12-01T09:31:59;5.60;99.90
12588;DHT22;6359;51.450;7.346;2022-12-01T09:34:27;5.60;99.90
12588;DHT22;6359;51.450;7.346;2022-12-01T09:36:55;5.60;99.90
12588;DHT22;6359;51.450;7.346;2022-12-01T09:39:23;5.70;99.90
12588;DHT22;6359;51.450;7.346;2022-12-01T09:41:52;3.70;99.90
12588;DHT22;6359;51.450;7.346;2022-12-01T09:44:29;5.80;99.90
12588;DHT22;6359;51.450;7.346;2022-12-01T09:47:02;5.50;99.90
12588;DHT22;6359;51.450;7.346;2022-12-01T09:49:39;5.80;99.90
12588;DHT22;6359;51.450;7.346;2022-12-01T09:52:09;5.80;99.90
12588;DHT22;6359;51.450;7.346;2022-12-01T09:57:04;5.90;99.90
12588;DHT22;6359;51.450;7.346;2022-12-01T09:59:34;5.80;99.90
12588;DHT22;6359;51.450;7.346;2022-12-01T10:02:21;6.00;99.90
12588;DHT22;6359;51.450;7.346;2022-12-01T10:04:50;5.90;99.90
12588;DHT22;6359;51.450;7.346;2022-12-01T10:07:22;5.80;99.90
12588;DHT22;6359;51.450;7.346;2022-12-01T10:09:53;6.40;99.90
12588;DHT22;6359;51.450;7.346;2022-12-01T10:12:23;6.00;99.90
12588;DHT22;6359;51.450;7.346;2022-12-01T10:14:57;6.00;99.90
12588;DHT22;6359;51.450;7.346;2022-12-01T10:17:33;5.90;99.90
12588;DHT22;6359;51.450;7.346;2022-12-01T10:20:05;5.80;99.90
12588;DHT22;6359;51.450;7.346;2022-12-01T10:22:52;5.90;99.90
12588;DHT22;6359;51.450;7.346;2022-12-01T10:25:24;5.90;99.90
12588;DHT22;6359;51.450;7.346;2022-12-01T10:28:03;6.20;99.90
12588;DHT22;6359;51.450;7.346;2022-12-01T10:30:34;5.70;99.90
12588;DHT22;6359;51.450;7.346;2022-12-01T10:33:14;5.90;99.90
12588;DHT22;6359;51.450;7.346;2022-12-01T10:35:44;6.10;99.90
12588;DHT22;6359;51.450;7.346;2022-12-01T10:38:14;5.90;99.90
12588;DHT22;6359;51.450;7.346;2022-12-01T10:45:43;5.60;99.90
12588;DHT22;6359;51.450;7.346;2022-12-01T10:48:13;6.10;99.90
12588;DHT22;6359;51.450;7.346;2022-12-01T10:50:42;6.10;99.90
12588;DHT22;6359;51.450;7.346;2022-12-01T10:53:28;6.10;99.90
12588;DHT22;6359;51.450;7.346;2022-12-01T10:56:03;6.20;99.90
12588;DHT22;6359;51.450;7.346;2022-12-01T10:58:31;6.30;99.90
12588;DHT22;6359;51.450;7.346;2022-12-01T11:01:02;6.70;99.90
12588;DHT22;6359;51.450;7.346;2022-12-01T11:03:34;6.70;99.90
12588;DHT22;6359;51.450;7.346;2022-12-01T11:06:03;6.80;99.90
12588;DHT22;6359;51.450;7.346;2022-12-01T11:08:36;6.90;99.90
12588;DHT22;6359;51.450;7.346;2022-12-01T11:13:34;6.90;99.90
12588;DHT22;6359;51.450;7.346;2022-12-01T11:16:03;6.90;99.90
12588;DHT22;6359;51.450;7.346;2022-12-01T11:18:33;6.80;99.90
12588;DHT22;6359;51.450;7.346;2022-12-01T11:21:07;6.80;99.90
12588;DHT22;6359;51.450;7.346;2022-12-01T11:23:36;6.70;99.90
12588;DHT22;6359;51.450;7.346;2022-12-01T11:26:12;6.70;99.90
12588;DHT22;6359;51.450;7.346;2022-12-01T11:28:49;6.40;99.90
12588;DHT22;6359;51.450;7.346;2022-12-01T11:31:16;6.70;99.90
12588;DHT22;6359;51.450;7.346;2022-12-01T11:33:48;6.50;99.90
12588;DHT22;6359;51.450;7.346;2022-12-01T11:36:21;6.50;99.90
12588;DHT22;6359;51.450;7.346;2022-12-01T11:41:26;6.50;99.90
12588;DHT22;6359;51.450;7.346;2022-12-01T11:46:29;6.60;99.90
12588;DHT22;6359;51.450;7.346;2022-12-01T11:48:58;6.90;99.90
12588;DHT22;6359;51.450;7.346;2022-12-01T11:51:28;6.70;99.90
12588;DHT22;6359;51.450;7.346;2022-12-01T11:54:05;6.70;99.90
12588;DHT22;6359;51.450;7.346;2022-12-01T11:56:32;6.80;99.90
12588;DHT22;6359;51.450;7.346;2022-12-01T11:59:02;6.70;99.90
12588;DHT22;6359;51.450;7.346;2022-12-01T12:01:40;6.50;99.90
12588;DHT22;6359;51.450;7.346;2022-12-01T12:04:23;6.50;99.90
12588;DHT22;6359;51.450;7.346;2022-12-01T12:06:57;6.50;99.90
12588;DHT22;6359;51.450;7.346;2022-12-01T12:09:41;6.60;99.90
12588;DHT22;6359;51.450;7.346;2022-12-01T12:12:18;6.60;99.90
12588;DHT22;6359;51.450;7.346;2022-12-01T12:14:59;6.60;99.90
12588;DHT22;6359;51.450;7.346;2022-12-01T12:17:49;7.10;99.90
12588;DHT22;6359;51.450;7.346;2022-12-01T12:20:33;6.60;99.90
12588;DHT22;6359;51.450;7.346;2022-12-01T12:26:08;6.70;99.90
12588;DHT22;6359;51.450;7.346;2022-12-01T12:28:54;6.50;99.90
12588;DHT22;6359;51.450;7.346;2022-12-01T12:31:28;6.70;99.90
12588;DHT22;6359;51.450;7.346;2022-12-01T12:34:13;6.70;99.90
12588;DHT22;6359;51.450;7.346;2022-12-01T12:36:55;6.50;99.90
12588;DHT22;6359;51.450;7.346;2022-12-01T12:39:39;6.60;99.90
12588;DHT22;6359;51.450;7.346;2022-12-01T12:42:15;6.40;99.90
12588;DHT22;6359;51.450;7.346;2022-12-01T12:44:48;6.40;99.90
12588;DHT22;6359;51.450;7.346;2022-12-01T12:47:34;6.60;99.90
12588;DHT22;6359;51.450;7.346;2022-12-01T12:50:16;6.60;99.90
12588;DHT22;6359;51.450;7.346;2022-12-01T12:52:53;6.60;99.90
12588;DHT22;6359;51.450;7.346;2022-12-01T12:55:24;7.30;99.90
12588;DHT22;6359;51.450;7.346;2022-12-01T12:57:54;6.60;99.90
12588;DHT22;6359;51.450;7.346;2022-12-01T13:00:24;6.40;99.90
12588;DHT22;6359;51.450;7.346;2022-12-01T13:02:54;6.80;99.90
12588;DHT22;6359;51.450;7.346;2022-12-01T13:05:26;6.80;99.90
12588;DHT22;6359;51.450;7.346;2022-12-01T13:08:00;6.70;99.90
12588;DHT22;6359;51.450;7.346;2022-12-01T13:10:31;6.80;99.90
12588;DHT22;6359;51.450;7.346;2022-12-01T13:13:05;7.00;99.90
12588;DHT22;6359;51.450;7.346;2022-12-01T13:15:37;6.70;99.90
12588;DHT22;6359;51.450;7.346;2022-12-01T13:18:11;6.80;99.90
12588;DHT22;6359;51.450;7.346;2022-12-01T13:20:42;6.70;99.90
12588;DHT22;6359;51.450;7.346;2022-12-01T13:23:13;6.60;99.90
12588;DHT22;6359;51.450;7.346;2022-12-01T13:25:42;7.00;99.90
12588;DHT22;6359;51.450;7.346;2022-12-01T13:28:15;6.50;99.90
12588;DHT22;6359;51.450;7.346;2022-12-01T13:30:59;6.40;99.90
12588;DHT22;6359;51.450;7.346;2022-12-01T13:33:27;6.30;99.90
12588;DHT22;6359;51.450;7.346;2022-12-01T13:35:55;7.10;99.90
12588;DHT22;6359;51.450;7.346;2022-12-01T13:38:26;6.80;99.90
12588;DHT22;6359;51.450;7.346;2022-12-01T13:41:22;6.50;99.90
12588;DHT22;6359;51.450;7.346;2022-12-01T13:43:55;6.40;99.90
12588;DHT22;6359;51.450;7.346;2022-12-01T13:46:24;6.40;99.90
12588;DHT22;6359;51.450;7.346;2022-12-01T13:48:53;6.40;99.90
12588;DHT22;6359;51.450;7.346;2022-12-01T13:51:21;6.30;99.90
12588;DHT22;6359;51.450;7.346;2022-12-01T13:54:02;6.10;99.90
12588;DHT22;6359;51.450;7.346;2022-12-01T13:56:43;6.40;99.90
12588;DHT22;6359;51.450;7.346;2022-12-01T13:59:40;6.40;99.90
12588;DHT22;6359;51.450;7.346;2022-12-01T14:02:16;6.50;99.90
12588;DHT22;6359;51.450;7.346;2022-12-01T14:07:41;6.50;99.90
12588;DHT22;6359;51.450;7.346;2022-12-01T14:10:25;6.60;99.90
12588;DHT22;6359;51.450;7.346;2022-12-01T14:12:55;6.70;99.90
12588;DHT22;6359;51.450;7.346;2022-12-01T14:15:30;6.20;99.90
12588;DHT22;6359;51.450;7.346;2022-12-01T14:17:59;6.50;99.90
12588;DHT22;6359;51.450;7.346;2022-12-01T14:20:27;6.40;99.90
12588;DHT22;6359;51.450;7.346;2022-12-01T14:23:16;6.30;99.90
12588;DHT22;6359;51.450;7.346;2022-12-01T14:25:57;6.20;99.90
12588;DHT22;6359;51.450;7.346;2022-12-01T14:32:04;6.00;99.90
12588;DHT22;6359;51.450;7.346;2022-12-01T14:34:45;5.90;99.90
12588;DHT22;6359;51.450;7.346;2022-12-01T14:37:16;5.90;99.90
12588;DHT22;6359;51.450;7.346;2022-12-01T14:39:55;5.90;99.90
12588;DHT22;6359;51.450;7.346;2022-12-01T14:42:29;5.80;99.90
12588;DHT22;6359;51.450;7.346;2022-12-01T14:45:19;5.80;99.90
12588;DHT22;6359;51.450;7.346;2022-12-01T14:47:51;5.80;99.90
12588;DHT22;6359;51.450;7.346;2022-12-01T14:50:23;6.40;99.90
12588;DHT22;6359;51.450;7.346;2022-12-01T14:52:54;5.70;99.90
12588;DHT22;6359;51.450;7.346;2022-12-01T14:55:24;5.60;99.90
12588;DHT22;6359;51.450;7.346;2022-12-01T14:58:00;5.50;99.90
12588;DHT22;6359;51.450;7.346;2022-12-01T15:00:29;5.80;99.90
12588;DHT22;6359;51.450;7.346;2022-12-01T15:02:59;5.60;99.90
12588;DHT22;6359;51.450;7.346;2022-12-01T15:05:28;5.50;99.90
12588;DHT22;6359;51.450;7.346;2022-12-01T15:07:58;5.60;99.90
12588;DHT22;6359;51.450;7.346;2022-12-01T15:10:27;5.60;99.90
12588;DHT22;6359;51.450;7.346;2022-12-01T15:13:12;5.10;99.90
12588;DHT22;6359;51.450;7.346;2022-12-01T15:15:49;5.20;99.90
12588;DHT22;6359;51.450;7.346;2022-12-01T15:18:21;5.50;99.90
12588;DHT22;6359;51.450;7.346;2022-12-01T15:20:49;5.50;99.90
12588;DHT22;6359;51.450;7.346;2022-12-01T15:25:44;5.60;99.90
12588;DHT22;6359;51.450;7.346;2022-12-01T15:28:15;5.40;99.90
12588;DHT22;6359;51.450;7.346;2022-12-01T15:30:44;5.50;99.90
12588;DHT22;6359;51.450;7.346;2022-12-01T15:33:18;5.50;99.90
12588;DHT22;6359;51.450;7.346;2022-12-01T15:35:45;5.40;99.90
12588;DHT22;6359;51.450;7.346;2022-12-01T15:38:15;5.30;99.90
12588;DHT22;6359;51.450;7.346;2022-12-01T15:40:43;5.40;99.90
12588;DHT22;6359;51.450;7.346;2022-12-01T15:43:18;5.20;99.90
12588;DHT22;6359;51.450;7.346;2022-12-01T15:45:50;5.20;99.90
12588;DHT22;6359;51.450;7.346;2022-12-01T15:48:26;5.30;99.90
12588;DHT22;6359;51.450;7.346;2022-12-01T15:51:10;5.40;99.90
12588;DHT22;6359;51.450;7.346;2022-12-01T15:53:40;5.30;99.90
12588;DHT22;6359;51.450;7.346;2022-12-01T15:58:45;5.20;99.90
12588;DHT22;6359;51.450;7.346;2022-12-01T16:01:15;2.90;99.90
12588;DHT22;6359;51.450;7.346;2022-12-01T16:04:01;5.20;99.90
12588;DHT22;6359;51.450;7.346;2022-12-01T16:06:30;5.40;99.90
12588;DHT22;6359;51.450;7.346;2022-12-01T16:09:00;5.20;99.90
12588;DHT22;6359;51.450;7.346;2022-12-01T16:14:00;5.20;99.90
12588;DHT22;6359;51.450;7.346;2022-12-01T16:16:39;5.30;99.90
12588;DHT22;6359;51.450;7.346;2022-12-01T16:19:25;5.20;99.90
12588;DHT22;6359;51.450;7.346;2022-12-01T16:21:56;5.20;99.90
12588;DHT22;6359;51.450;7.346;2022-12-01T16:24:27;5.10;99.90
12588;DHT22;6359;51.450;7.346;2022-12-01T16:26:57;5.10;99.90
12588;DHT22;6359;51.450;7.346;2022-12-01T16:29:28;5.10;99.90
12588;DHT22;6359;51.450;7.346;2022-12-01T16:31:57;5.10;99.90
12588;DHT22;6359;51.450;7.346;2022-12-01T16:34:33;4.90;99.90
12588;DHT22;6359;51.450;7.346;2022-12-01T16:37:00;5.00;99.90
12588;DHT22;6359;51.450;7.346;2022-12-01T16:41:58;5.10;99.90
12588;DHT22;6359;51.450;7.346;2022-12-01T16:44:27;5.00;99.90
12588;DHT22;6359;51.450;7.346;2022-12-01T16:49:21;5.00;99.90
12588;DHT22;6359;51.450;7.346;2022-12-01T17:01:38;4.90;99.90
12588;DHT22;6359;51.450;7.346;2022-12-01T17:09:00;4.90;99.90
12588;DHT22;6359;51.450;7.346;2022-12-01T17:11:26;4.90;99.90
12588;DHT22;6359;51.450;7.346;2022-12-01T17:16:20;4.60;99.90
12588;DHT22;6359;51.450;7.346;2022-12-01T17:18:49;4.60;99.90
12588;DHT22;6359;51.450;7.346;2022-12-01T17:21:15;4.70;99.90
12588;DHT22;6359;51.450;7.346;2022-12-01T17:23:42;4.30;99.90
12588;DHT22;6359;51.450;7.346;2022-12-01T17:26:12;4.50;99.90
12588;DHT22;6359;51.450;7.346;2022-12-01T17:31:07;4.50;99.90
12588;DHT22;6359;51.450;7.346;2022-12-01T17:33:35;4.40;99.90
12588;DHT22;6359;51.450;7.346;2022-12-01T17:36:05;4.40;99.90
12588;DHT22;6359;51.450;7.346;2022-12-01T17:38:34;4.50;99.90
12588;DHT22;6359;51.450;7.346;2022-12-01T17:41:03;4.40;99.90
12588;DHT22;6359;51.450;7.346;2022-12-01T17:43:31;4.40;99.90
12588;DHT22;6359;51.450;7.346;2022-12-01T17:53:21;4.30;99.90
12588;DHT22;6359;51.450;7.346;2022-12-01T17:55:48;3.80;99.90
12588;DHT22;6359;51.450;7.346;2022-12-01T18:08:07;4.10;99.90
12588;DHT22;6359;51.450;7.346;2022-12-01T18:10:35;4.10;99.90
12588;DHT22;6359;51.450;7.346;2022-12-01T18:13:02;4.20;99.90
12588;DHT22;6359;51.450;7.346;2022-12-01T18:27:46;4.00;99.90
12588;DHT22;6359;51.450;7.346;2022-12-01T18:35:10;4.10;99.90
12588;DHT22;6359;51.450;7.346;2022-12-01T18:40:06;4.00;99.90
12588;DHT22;6359;51.450;7.346;2022-12-01T18:45:02;4.10;99.90
12588;DHT22;6359;51.450;7.346;2022-12-01T18:47:28;3.90;99.90
12588;DHT22;6359;51.450;7.346;2022-12-01T18:52:22;4.00;99.90
12588;DHT22;6359;51.450;7.346;2022-12-01T18:59:44;4.30;99.90
12588;DHT22;6359;51.450;7.346;2022-12-01T19:02:12;4.10;99.90
12588;DHT22;6359;51.450;7.346;2022-12-01T19:19:24;4.20;99.90
12588;DHT22;6359;51.450;7.346;2022-12-01T19:21:51;4.00;99.90
12588;DHT22;6359;51.450;7.346;2022-12-01T19:34:07;4.10;99.90
12588;DHT22;6359;51.450;7.346;2022-12-01T19:36:35;4.00;99.90
12588;DHT22;6359;51.450;7.346;2022-12-01T19:39:02;4.10;99.90
12588;DHT22;6359;51.450;7.346;2022-12-01T19:41:29;4.00;99.90
12588;DHT22;6359;51.450;7.346;2022-12-01T19:43:57;4.00;99.90
12588;DHT22;6359;51.450;7.346;2022-12-01T19:46:24;4.10;99.90
12588;DHT22;6359;51.450;7.346;2022-12-01T19:48:53;4.00;99.90
12588;DHT22;6359;51.450;7.346;2022-12-01T19:51:22;3.80;99.90
12588;DHT22;6359;51.450;7.346;2022-12-01T19:53:51;4.00;99.90
12588;DHT22;6359;51.450;7.346;2022-12-01T19:56:18;4.20;99.90
12588;DHT22;6359;51.450;7.346;2022-12-01T20:01:15;4.00;99.90
12588;DHT22;6359;51.450;7.346;2022-12-01T20:03:44;3.90;99.90
12588;DHT22;6359;51.450;7.346;2022-12-01T20:06:13;3.90;99.90
12588;DHT22;6359;51.450;7.346;2022-12-01T20:08:41;4.00;99.90
12588;DHT22;6359;51.450;7.346;2022-12-01T20:11:10;4.10;99.90
12588;DHT22;6359;51.450;7.346;2022-12-01T20:13:38;4.10;99.90
12588;DHT22;6359;51.450;7.346;2022-12-01T20:16:08;4.00;99.90
12588;DHT22;6359;51.450;7.346;2022-12-01T20:18:35;4.00;99.90
12588;DHT22;6359;51.450;7.346;2022-12-01T20:21:04;3.90;99.90
12588;DHT22;6359;51.450;7.346;2022-12-01T20:25:59;4.00;99.90
12588;DHT22;6359;51.450;7.346;2022-12-01T20:28:28;4.00;99.90
12588;DHT22;6359;51.450;7.346;2022-12-01T20:30:56;3.80;99.90
12588;DHT22;6359;51.450;7.346;2022-12-01T20:38:19;3.90;99.90
12588;DHT22;6359;51.450;7.346;2022-12-01T20:40:49;3.80;99.90
12588;DHT22;6359;51.450;7.346;2022-12-01T20:45:44;3.80;99.90
12588;DHT22;6359;51.450;7.346;2022-12-01T20:48:12;4.00;99.90
12588;DHT22;6359;51.450;7.346;2022-12-01T20:55:34;3.80;99.90
12588;DHT22;6359;51.450;7.346;2022-12-01T21:00:28;3.70;99.90
12588;DHT22;6359;51.450;7.346;2022-12-01T21:02:57;3.70;99.90
12588;DHT22;6359;51.450;7.346;2022-12-01T21:07:51;3.60;99.90
12588;DHT22;6359;51.450;7.346;2022-12-01T21:12:48;3.60;99.90
12588;DHT22;6359;51.450;7.346;2022-12-01T21:15:38;3.70;99.90
12588;DHT22;6359;51.450;7.346;2022-12-01T21:18:18;3.60;99.90
12588;DHT22;6359;51.450;7.346;2022-12-01T21:20:51;3.60;99.90
12588;DHT22;6359;51.450;7.346;2022-12-01T21:25:47;3.60;99.90
12588;DHT22;6359;51.450;7.346;2022-12-01T21:28:17;3.60;99.90
12588;DHT22;6359;51.450;7.346;2022-12-01T21:30:45;3.50;99.90
12588;DHT22;6359;51.450;7.346;2022-12-01T21:33:27;3.50;99.90
12588;DHT22;6359;51.450;7.346;2022-12-01T21:35:56;3.50;99.90
12588;DHT22;6359;51.450;7.346;2022-12-01T21:38:25;3.50;99.90
12588;DHT22;6359;51.450;7.346;2022-12-01T21:43:22;3.50;99.90
12588;DHT22;6359;51.450;7.346;2022-12-01T21:45:51;3.50;99.90
12588;DHT22;6359;51.450;7.346;2022-12-01T21:48:21;3.50;99.90
12588;DHT22;6359;51.450;7.346;2022-12-01T21:50:55;3.50;99.90
12588;DHT22;6359;51.450;7.346;2022-12-01T21:53:24;3.40;99.90
12588;DHT22;6359;51.450;7.346;2022-12-01T21:55:55;3.40;99.90
12588;DHT22;6359;51.450;7.346;2022-12-01T21:58:24;3.30;99.90
12588;DHT22;6359;51.450;7.346;2022-12-01T22:00:54;3.30;99.90
12588;DHT22;6359;51.450;7.346;2022-12-01T22:03:29;3.30;99.90
12588;DHT22;6359;51.450;7.346;2022-12-01T22:06:01;3.30;99.90
12588;DHT22;6359;51.450;7.346;2022-12-01T22:08:33;3.20;99.90
12588;DHT22;6359;51.450;7.346;2022-12-01T22:11:03;3.20;99.90
12588;DHT22;6359;51.450;7.346;2022-12-01T22:13:41;3.20;99.90
12588;DHT22;6359;51.450;7.346;2022-12-01T22:16:14;3.30;99.90
12588;DHT22;6359;51.450;7.346;2022-12-01T22:18:45;3.10;99.90
12588;DHT22;6359;51.450;7.346;2022-12-01T22:21:34;2.90;99.90
12588;DHT22;6359;51.450;7.346;2022-12-01T22:24:21;3.10;99.90
12588;DHT22;6359;51.450;7.346;2022-12-01T22:26:50;3.10;99.90
12588;DHT22;6359;51.450;7.346;2022-12-01T22:29:25;3.10;99.90